Time;durP1;ratioP1;P1;durP2;ratioP2;P2;SDS_P1;SDS_P2;PMS_P1;PMS_P2;Temp;Humidity;BMP_temperature;BMP_pressure;BME280_temperature;BME280_humidity;BME280_pressure;Samples;Min_cycle;Max_cycle;Signal;HPM_P1;HPM_P2
2022/09/21 04:18:10;;;;;;;9.75;7.43;;;;;;;6.97;100.00;100779.28;5556240;32;291140;-88
2022/09/21 04:21:13;;;;;;;11.12;7.65;;;;;;;6.96;100.00;100785.47;5547779;32;33828;-89
2022/09/21 04:24:18;;;;;;;10.80;7.35;;;;;;;6.99;100.00;100781.88;5549931;32;34517;-88
2022/09/21 04:27:20;;;;;;;9.35;7.30;;;;;;;7.01;100.00;100786.19;5548489;32;35054;-88
2022/09/21 04:30:23;;;;;;;8.55;6.72;;;;;;;7.06;100.00;100790.47;5549658;32;34147;-88
2022/09/21 04:33:26;;;;;;;9.27;7.20;;;;;;;7.13;100.00;100789.37;5548333;32;33811;-88
2022/09/21 04:36:28;;;;;;;11.75;7.32;;;;;;;7.13;100.00;100797.28;5549392;32;33783;-88
2022/09/21 04:39:38;;;;;;;7.72;6.78;;;;;;;7.09;100.00;100787.75;5548775;32;33890;-88
2022/09/21 04:42:41;;;;;;;9.60;6.93;;;;;;;7.08;100.00;100802.72;5548252;32;34110;-88
2022/09/21 04:45:43;;;;;;;8.68;6.87;;;;;;;7.04;100.00;100803.69;5548204;32;34693;-88
2022/09/21 04:48:47;;;;;;;8.77;7.28;;;;;;;7.09;100.00;100807.06;5546138;32;34220;-88
2022/09/21 04:51:50;;;;;;;7.90;7.05;;;;;;;7.01;100.00;100806.44;5546700;32;33951;-88
2022/09/21 04:54:52;;;;;;;9.50;7.85;;;;;;;6.99;100.00;100817.03;5545804;32;34261;-88
2022/09/21 04:57:55;;;;;;;14.23;8.05;;;;;;;6.95;100.00;100815.38;5552202;32;33848;-88
2022/09/21 05:00:57;;;;;;;8.80;6.65;;;;;;;6.99;100.00;100817.03;5541980;32;33659;-88
2022/09/21 05:04:01;;;;;;;10.75;7.70;;;;;;;7.00;100.00;100813.47;5526087;32;34021;-88
2022/09/21 05:07:04;;;;;;;9.00;7.25;;;;;;;7.01;100.00;100812.56;5525988;32;33535;-89
2022/09/21 05:10:07;;;;;;;9.10;7.32;;;;;;;7.10;100.00;100811.44;5538117;32;32800;-88
2022/09/21 05:13:10;;;;;;;9.57;7.50;;;;;;;7.31;100.00;100808.22;5534681;32;33829;-88
2022/09/21 05:16:14;;;;;;;7.75;6.95;;;;;;;7.42;100.00;100808.78;5544225;32;35001;-88
2022/09/21 05:19:17;;;;;;;10.77;7.60;;;;;;;7.45;100.00;100823.66;5548480;32;35211;-88
2022/09/21 05:22:20;;;;;;;9.43;7.37;;;;;;;7.53;100.00;100817.25;5545408;32;34351;-87
2022/09/21 05:25:23;;;;;;;9.57;7.40;;;;;;;7.68;100.00;100822.97;5551838;32;34399;-87
2022/09/21 05:28:26;;;;;;;10.50;7.70;;;;;;;7.63;100.00;100827.53;5543311;32;34337;-87
2022/09/21 05:31:37;;;;;;;9.05;7.32;;;;;;;7.84;100.00;100822.50;5531117;32;34833;-87
2022/09/21 05:34:48;;;;;;;9.82;7.35;;;;;;;7.83;100.00;100821.62;5540857;32;34094;-88
2022/09/21 05:37:56;;;;;;;;;;;;;;;7.86;100.00;100823.31;5535837;32;35035;-88
2022/09/21 05:40:59;;;;;;;10.27;6.75;;;;;;;7.93;100.00;100823.09;5542325;32;34153;-88
2022/09/21 05:44:02;;;;;;;9.23;7.07;;;;;;;8.03;100.00;100834.22;5527726;32;35096;-91
2022/09/21 05:47:25;;;;;;;9.50;7.07;;;;;;;8.20;100.00;100830.19;5535441;32;32714;-92
2022/09/21 05:51:05;;;;;;;10.80;7.37;;;;;;;8.33;100.00;100839.44;5528705;32;34520;-88
2022/09/21 05:54:38;;;;;;;10.43;7.77;;;;;;;8.32;100.00;100842.12;5524960;32;34201;-87
2022/09/21 05:57:59;;;;;;;9.63;7.78;;;;;;;8.26;100.00;100837.91;5510790;32;34239;-87
2022/09/21 06:01:36;;;;;;;8.63;7.53;;;;;;;8.60;100.00;100842.09;5524215;32;34583;-87
2022/09/21 06:04:42;;;;;;;9.85;7.65;;;;;;;9.03;100.00;100836.22;5531811;32;34849;-89
2022/09/21 06:11:33;;;;;;;10.07;8.70;;;;;;;8.68;100.00;100844.47;5511701;32;34009;-87
2022/09/21 06:14:36;;;;;;;12.30;8.85;;;;;;;8.70;100.00;100860.31;5517704;32;32359;-87
2022/09/21 06:17:39;;;;;;;13.48;8.32;;;;;;;8.71;100.00;100860.22;5524154;32;33818;-87
2022/09/21 06:20:41;;;;;;;10.65;8.85;;;;;;;8.96;100.00;100854.09;5518336;32;33462;-86
2022/09/21 06:23:44;;;;;;;10.80;9.27;;;;;;;9.04;100.00;100848.53;5514633;32;34244;-88
2022/09/21 06:26:46;;;;;;;10.77;8.35;;;;;;;9.12;100.00;100857.09;5523634;32;34459;-88
2022/09/21 06:29:49;;;;;;;12.35;9.40;;;;;;;9.09;100.00;100856.28;5516639;32;33986;-88
2022/09/21 06:32:52;;;;;;;10.77;8.88;;;;;;;8.81;100.00;100863.44;5510980;32;33649;-88
2022/09/21 06:35:57;;;;;;;13.23;8.65;;;;;;;8.89;100.00;100869.34;5517038;32;34483;-86
2022/09/21 06:38:59;;;;;;;10.88;9.13;;;;;;;9.41;100.00;100863.06;5531115;32;33680;-87
2022/09/21 06:42:02;;;;;;;13.55;8.68;;;;;;;9.37;100.00;100865.91;5545486;26;33854;-85
2022/09/21 06:45:05;;;;;;;10.93;8.60;;;;;;;9.54;100.00;100866.12;5527867;32;33529;-86
2022/09/21 06:48:08;;;;;;;9.32;7.65;;;;;;;9.87;100.00;100867.56;5539856;32;34182;-86
2022/09/21 06:51:11;;;;;;;9.63;7.53;;;;;;;10.07;100.00;100872.06;5522042;32;34488;-86
2022/09/21 06:54:14;;;;;;;9.00;7.65;;;;;;;10.11;100.00;100868.38;5526844;32;33638;-88
2022/09/21 06:57:16;;;;;;;8.77;7.75;;;;;;;10.09;100.00;100861.41;5525547;32;34137;-88
2022/09/21 07:00:19;;;;;;;11.20;7.93;;;;;;;10.25;100.00;100866.94;5512589;32;33756;-88
2022/09/21 07:03:22;;;;;;;8.27;7.40;;;;;;;10.38;100.00;100868.16;5521344;32;33913;-88
2022/09/21 07:06:25;;;;;;;8.15;7.20;;;;;;;10.33;100.00;100864.00;5516054;32;33802;-90
2022/09/21 07:09:27;;;;;;;8.18;7.07;;;;;;;10.56;100.00;100864.88;5513116;32;35141;-89
2022/09/21 07:12:51;;;;;;;7.53;6.72;;;;;;;10.96;100.00;100867.59;5513531;32;34109;-86
2022/09/21 07:15:54;;;;;;;7.35;6.50;;;;;;;11.41;95.11;100869.12;5525430;32;32435;-87
2022/09/21 07:18:57;;;;;;;7.45;6.05;;;;;;;11.53;93.71;100869.53;5595078;26;34189;-89
2022/09/21 07:25:51;;;;;;;6.93;5.75;;;;;;;12.10;90.18;100864.22;5559043;26;20089;-90
2022/09/21 07:28:54;;;;;;;6.47;5.78;;;;;;;12.30;87.80;100877.47;5527509;32;33973;-89
2022/09/21 07:31:57;;;;;;;6.22;5.60;;;;;;;12.57;87.12;100879.72;5525053;32;33506;-87
2022/09/21 07:34:59;;;;;;;6.82;5.80;;;;;;;12.88;85.11;100878.16;5526841;32;33996;-86
2022/09/21 07:38:05;;;;;;;7.03;5.47;;;;;;;12.77;84.58;100874.22;5513259;32;32711;-88
2022/09/21 07:41:10;;;;;;;6.07;5.30;;;;;;;13.39;83.23;100878.16;5526701;32;33927;-88
2022/09/21 07:44:12;;;;;;;6.85;5.35;;;;;;;14.15;78.63;100876.69;5527302;32;33602;-88
2022/09/21 07:47:16;;;;;;;6.65;5.85;;;;;;;15.27;73.38;100871.13;5526866;32;35370;-88
2022/09/21 07:50:21;;;;;;;9.18;5.93;;;;;;;14.78;72.91;100878.50;5526395;32;33638;-86
2022/09/21 07:53:24;;;;;;;6.30;5.70;;;;;;;14.67;74.28;100881.75;5526854;32;33999;-87
2022/09/21 07:56:27;;;;;;;6.12;5.50;;;;;;;14.97;72.66;100877.41;5525893;32;33983;-87
2022/09/21 07:59:31;;;;;;;7.32;4.75;;;;;;;17.81;64.32;100883.88;5526994;32;34732;-91
2022/09/21 08:02:34;;;;;;;7.07;4.65;;;;;;;20.20;55.58;100876.38;5527429;32;34070;-89
2022/09/21 08:05:37;;;;;;;5.68;4.50;;;;;;;22.47;47.87;100864.00;5525356;32;34428;-91
2022/09/21 08:08:40;;;;;;;5.18;4.60;;;;;;;23.60;45.06;100870.59;5540546;32;35024;-92
2022/09/21 08:22:54;;;;;;;4.30;3.60;;;;;;;22.60;40.60;100874.56;5521469;32;20115;-88
2022/09/21 08:26:04;;;;;;;4.15;3.72;;;;;;;21.33;44.75;100881.34;5524998;32;32182;-84
2022/09/21 08:29:07;;;;;;;5.15;3.80;;;;;;;19.70;49.78;100878.66;5526199;32;33077;-84
2022/09/21 08:32:10;;;;;;;4.32;3.58;;;;;;;20.63;47.56;100876.47;5529602;32;33511;-85
2022/09/21 08:35:33;;;;;;;8.57;3.70;;;;;;;21.48;46.27;100871.00;5527540;32;34164;-85
2022/09/21 08:38:37;;;;;;;5.57;3.78;;;;;;;21.12;45.83;100879.50;5527203;32;32318;-84
2022/09/21 08:41:58;;;;;;;4.35;3.60;;;;;;;19.84;49.72;100874.84;5525632;32;34822;-85
2022/09/21 08:45:08;;;;;;;3.60;3.30;;;;;;;18.52;53.12;100876.03;5528270;32;34287;-86
2022/09/21 08:48:22;;;;;;;4.15;3.30;;;;;;;19.60;51.45;100876.72;5521243;32;34514;-87
2022/09/21 08:51:37;;;;;;;6.05;3.55;;;;;;;19.90;51.05;100877.91;5525880;32;32340;-86
2022/09/21 08:54:50;;;;;;;6.18;3.45;;;;;;;20.52;49.16;100873.81;5531369;32;33169;-86
2022/09/21 08:57:53;;;;;;;4.00;3.70;;;;;;;20.03;50.93;100874.22;5526573;32;34142;-86
2022/09/21 09:01:04;;;;;;;5.00;3.72;;;;;;;19.24;51.99;100878.66;5525944;32;32767;-86
2022/09/21 09:04:19;;;;;;;5.97;3.83;;;;;;;18.79;53.38;100885.63;5527712;32;33412;-85
2022/09/21 09:07:47;;;;;;;3.95;3.50;;;;;;;17.71;56.86;100881.84;5531931;32;34679;-89
2022/09/21 09:11:31;;;;;;;3.78;3.47;;;;;;;17.65;55.97;100887.66;5518907;32;34008;-85
2022/09/21 09:14:58;;;;;;;9.13;4.35;;;;;;;17.32;58.38;100881.06;5492274;32;33493;-86
2022/09/21 09:18:23;;;;;;;3.90;3.35;;;;;;;18.52;55.99;100883.22;5510180;32;34251;-88
2022/09/21 09:21:37;;;;;;;5.60;3.72;;;;;;;18.94;54.79;100883.59;5509163;32;33648;-87
2022/09/21 09:24:48;;;;;;;3.83;3.53;;;;;;;18.38;54.11;100889.59;5509879;32;34790;-87
2022/09/21 09:28:03;;;;;;;4.70;3.45;;;;;;;17.82;55.52;100888.28;5512195;32;32766;-88
2022/09/21 09:31:21;;;;;;;4.15;3.55;;;;;;;19.05;52.81;100873.88;5529466;32;32920;-87
2022/09/21 09:34:31;;;;;;;4.20;3.50;;;;;;;19.55;51.04;100881.59;5532730;32;35228;-87
2022/09/21 09:37:40;;;;;;;7.30;3.42;;;;;;;19.28;52.45;100879.25;5530926;32;34633;-86
2022/09/21 09:41:21;;;;;;;5.35;3.40;;;;;;;19.92;51.31;100872.41;5530752;32;35109;-87
2022/09/21 09:44:43;;;;;;;4.37;3.40;;;;;;;20.05;48.97;100877.66;5530546;32;34452;-87
2022/09/21 09:48:16;;;;;;;3.97;2.90;;;;;;;19.64;50.15;100875.50;5530243;32;33062;-87
2022/09/21 09:51:19;;;;;;;4.18;3.22;;;;;;;20.82;48.14;100867.66;5539761;32;34184;-87
2022/09/21 09:54:25;;;;;;;3.12;2.83;;;;;;;20.16;48.54;100877.63;5540770;32;35197;-86
2022/09/21 09:57:31;;;;;;;3.15;2.85;;;;;;;21.09;46.31;100874.41;5534584;32;34409;-87
2022/09/21 10:00:33;;;;;;;4.30;2.80;;;;;;;20.93;48.42;100868.59;5520282;32;33773;-86
2022/09/21 10:03:37;;;;;;;4.25;2.70;;;;;;;21.46;45.32;100861.38;5526020;32;34585;-85
2022/09/21 10:06:40;;;;;;;2.80;2.60;;;;;;;20.57;47.97;100858.13;5523475;32;34748;-85
2022/09/21 10:09:48;;;;;;;3.55;2.60;;;;;;;20.97;45.66;100867.37;5518888;32;34057;-87
2022/09/21 10:12:52;;;;;;;3.12;2.50;;;;;;;21.39;45.59;100858.34;5530214;32;34360;-87
2022/09/21 10:16:25;;;;;;;3.05;2.75;;;;;;;21.88;44.92;100845.03;5527337;32;33851;-88
2022/09/21 10:19:29;;;;;;;4.25;2.33;;;;;;;22.14;43.08;100857.16;5524117;32;34205;-88
2022/09/21 10:22:31;;;;;;;3.22;2.60;;;;;;;24.36;39.03;100846.91;5525604;32;34117;-88
2022/09/21 10:25:34;;;;;;;2.67;2.08;;;;;;;27.57;32.74;100845.31;5519612;32;34030;-89
2022/09/21 10:29:24;;;;;;;4.80;2.33;;;;;;;28.38;30.93;100836.00;5522582;32;34589;-88
2022/09/21 10:32:27;;;;;;;2.78;2.15;;;;;;;24.35;36.77;100839.75;5498490;32;34331;-87
2022/09/21 10:35:30;;;;;;;4.15;2.12;;;;;;;24.19;37.74;100843.16;5531337;32;34719;-88
2022/09/21 10:38:35;;;;;;;2.30;2.10;;;;;;;23.26;39.67;100841.38;5532149;32;34769;-87
2022/09/21 10:41:37;;;;;;;2.20;2.03;;;;;;;22.93;40.89;100843.63;5537707;32;34392;-87
2022/09/21 10:44:44;;;;;;;2.20;2.00;;;;;;;22.11;42.21;100836.66;5525129;32;33813;-88
2022/09/21 10:47:57;;;;;;;2.28;2.08;;;;;;;23.65;39.29;100824.97;5511184;32;34688;-88
2022/09/21 10:51:00;;;;;;;3.95;1.90;;;;;;;24.00;37.36;100819.75;5525945;32;34449;-88
2022/09/21 10:54:08;;;;;;;3.15;2.03;;;;;;;22.88;38.34;100830.53;5529380;32;34211;-87
2022/09/21 10:57:17;;;;;;;1.70;1.60;;;;;;;22.98;38.13;100835.91;5532266;32;35074;-88
2022/09/21 11:00:20;;;;;;;2.60;2.40;;;;;;;25.97;31.98;100824.88;5516563;32;34943;-92
2022/09/21 11:03:34;;;;;;;3.35;2.20;;;;;;;24.41;35.03;100832.88;5533016;26;33057;-90
2022/09/21 11:06:44;;;;;;;2.50;2.30;;;;;;;21.56;40.43;100826.31;5563677;26;34592;-91
2022/09/21 11:21:40;;;;;;;2.53;1.65;;;;;;;18.12;46.71;100823.47;978890;26;20406;-91
2022/09/21 11:25:02;;;;;;;2.15;1.70;;;;;;;18.68;47.96;100823.78;5537224;26;32544;-91
2022/09/21 11:28:37;;;;;;;1.80;1.65;;;;;;;18.34;47.88;100812.94;5520681;32;34623;-91
2022/09/21 11:32:01;;;;;;;1.50;1.40;;;;;;;18.92;47.67;100806.72;5589388;26;34277;-90
2022/09/21 11:35:26;;;;;;;2.50;1.58;;;;;;;19.13;47.92;100798.84;5515997;32;35154;-90
2022/09/21 11:38:50;;;;;;;1.58;1.35;;;;;;;19.29;44.58;100798.47;5532682;26;34618;-89
2022/09/21 11:42:13;;;;;;;1.37;1.27;;;;;;;19.49;43.58;100799.56;5530337;32;32889;-89
2022/09/21 11:45:50;;;;;;;1.17;1.10;;;;;;;20.06;42.56;100804.81;5535925;32;33761;-88
2022/09/21 11:49:05;;;;;;;1.40;1.30;;;;;;;19.72;42.03;100798.66;5605400;26;34096;31
2022/09/21 11:52:37;;;;;;;1.40;1.30;;;;;;;19.98;41.92;100796.53;5513281;32;33153;-89
2022/09/21 11:56:04;;;;;;;2.47;1.77;;;;;;;20.23;40.29;100788.22;5509575;32;34869;-90
2022/09/21 11:59:24;;;;;;;1.10;1.10;;;;;;;18.71;42.12;100789.47;5515454;32;34881;-89
2022/09/21 12:02:50;;;;;;;1.92;1.33;;;;;;;19.05;43.06;100777.94;5570896;26;34021;-91
2022/09/21 12:05:59;;;;;;;1.48;1.33;;;;;;;19.19;43.85;100779.53;5608505;26;33901;-91
2022/09/21 12:09:14;;;;;;;2.45;1.20;;;;;;;19.33;43.13;100774.88;5519091;32;35260;-88
2022/09/21 12:12:53;;;;;;;0.95;0.95;;;;;;;19.07;43.60;100769.75;5512868;32;33973;-88
2022/09/21 12:16:10;;;;;;;1.37;1.30;;;;;;;19.28;42.52;100769.88;5455765;32;33767;-88
2022/09/21 12:19:32;;;;;;;1.35;1.25;;;;;;;18.91;42.82;100762.03;5525823;32;34465;-88
2022/09/21 12:33:46;;;;;;;1.70;1.60;;;;;;;20.34;43.25;100755.84;1897484;26;20099;-89
2022/09/21 12:37:11;;;;;;;1.75;1.65;;;;;;;18.29;48.37;100762.25;5521464;32;34229;-89
2022/09/21 12:40:33;;;;;;;1.92;1.40;;;;;;;17.03;50.13;100769.56;5523508;32;33949;-89
2022/09/21 12:43:48;;;;;;;1.00;1.00;;;;;;;16.91;50.65;100762.37;5532809;32;34706;-89
2022/09/21 12:47:09;;;;;;;1.10;1.00;;;;;;;16.84;49.19;100773.50;5543537;32;34145;-89
2022/09/21 12:50:21;;;;;;;1.48;1.37;;;;;;;17.55;48.15;100764.09;5522553;32;34961;-88
2022/09/21 12:53:27;;;;;;;1.42;1.30;;;;;;;17.23;49.65;100769.97;5517193;32;33907;-88
2022/09/21 12:56:48;;;;;;;1.62;1.50;;;;;;;17.61;49.82;100779.72;5518768;32;33612;-86
2022/09/21 13:00:09;;;;;;;1.85;1.52;;;;;;;17.58;49.73;100766.56;5529855;32;34641;-87
2022/09/21 13:03:24;;;;;;;2.28;1.55;;;;;;;17.67;49.07;100761.47;5534816;32;34309;-87
2022/09/21 13:06:59;;;;;;;1.50;1.40;;;;;;;17.32;49.73;100761.28;5512087;32;34368;-88
2022/09/21 13:10:26;;;;;;;7.33;1.93;;;;;;;17.29;50.92;100760.62;5530664;32;33900;-87
2022/09/21 13:13:40;;;;;;;1.40;1.30;;;;;;;17.56;50.23;100754.22;5516249;32;32972;-87
2022/09/21 13:16:43;;;;;;;1.73;1.40;;;;;;;17.11;50.10;100748.41;5530486;32;33968;-87
2022/09/21 13:19:57;;;;;;;2.12;1.40;;;;;;;17.42;50.05;100748.03;5512620;32;34479;-88
2022/09/21 13:23:01;;;;;;;3.35;1.33;;;;;;;17.89;49.48;100741.94;5514679;32;34572;-88
2022/09/21 13:26:07;;;;;;;1.20;1.20;;;;;;;17.60;50.25;100740.47;5509796;32;34604;-88
2022/09/21 13:29:17;;;;;;;1.48;1.25;;;;;;;17.09;51.43;100731.59;5512821;32;34645;-88
2022/09/21 13:32:22;;;;;;;2.33;1.33;;;;;;;17.36;50.59;100735.94;5514096;32;33910;-87
2022/09/21 13:36:02;;;;;;;1.50;1.33;;;;;;;17.37;49.14;100734.97;5527053;32;34019;-87
2022/09/21 13:39:08;;;;;;;1.50;1.40;;;;;;;17.03;50.36;100736.53;5478472;32;33092;-87
2022/09/21 13:42:33;;;;;;;2.35;1.30;;;;;;;17.17;51.05;100735.56;5499203;32;33742;-87
2022/09/21 13:45:35;;;;;;;2.22;1.62;;;;;;;17.64;49.92;100730.34;5513975;32;33558;-88
2022/09/21 13:48:39;;;;;;;1.65;1.20;;;;;;;17.54;50.07;100729.34;5510064;32;34375;-87
2022/09/21 13:51:56;;;;;;;2.22;1.30;;;;;;;17.69;48.59;100728.19;5497325;32;34424;-88
2022/09/21 13:55:03;;;;;;;1.40;1.30;;;;;;;18.04;49.51;100723.81;5497078;32;34136;-87
2022/09/21 13:58:16;;;;;;;1.90;1.40;;;;;;;18.16;47.36;100722.09;5501353;32;32744;-87
2022/09/21 14:01:29;;;;;;;2.35;1.42;;;;;;;17.65;48.82;100718.66;5512830;32;32396;-88
2022/09/21 14:04:50;;;;;;;2.15;1.37;;;;;;;17.11;49.69;100736.88;5526993;32;33977;-88
2022/09/21 14:07:59;;;;;;;1.50;1.40;;;;;;;17.11;49.44;100729.66;5511308;32;33899;-89
2022/09/21 14:11:28;;;;;;;3.75;1.50;;;;;;;17.24;48.39;100724.28;5544441;26;34797;-89
2022/09/21 14:14:37;;;;;;;2.75;1.15;;;;;;;17.65;47.26;100734.75;5551509;32;34612;-88
2022/09/21 14:17:40;;;;;;;1.27;1.17;;;;;;;17.40;47.18;100728.50;5577332;26;32629;-89
2022/09/21 14:21:06;;;;;;;1.48;1.10;;;;;;;17.24;48.67;100728.78;5504984;32;33719;-88
2022/09/21 14:24:46;;;;;;;1.48;1.37;;;;;;;17.32;48.96;100729.09;5493067;32;34039;-89
2022/09/21 14:27:50;;;;;;;1.77;1.40;;;;;;;16.89;50.46;100724.13;5519713;32;34533;-87
2022/09/21 14:31:00;;;;;;;1.37;1.25;;;;;;;17.08;49.76;100724.53;5509825;32;34323;-88
2022/09/21 14:34:09;;;;;;;1.30;1.20;;;;;;;16.94;50.44;100728.16;5496275;32;34172;-88
2022/09/21 14:37:26;;;;;;;1.42;1.33;;;;;;;17.13;49.52;100723.34;5499798;32;33854;-88
2022/09/21 14:40:37;;;;;;;1.90;1.05;;;;;;;17.10;50.63;100729.78;5505781;32;33723;-90
2022/09/21 14:43:40;;;;;;;3.03;1.45;;;;;;;17.16;48.39;100732.03;5507520;32;34280;-89
2022/09/21 15:05:35;;;;;;;1.33;1.20;;;;;;;16.75;50.13;100730.44;5532373;32;20088;-88
2022/09/21 15:27:32;;;;;;;2.90;1.62;;;;;;;16.31;49.55;100733.41;2461740;29;20095;-89
2022/09/21 15:30:44;;;;;;;1.25;1.15;;;;;;;16.04;50.50;100737.00;5549108;32;34317;-89
2022/09/21 15:37:25;;;;;;;1.60;1.37;;;;;;;15.84;51.67;100743.66;4130053;26;20089;-89
